This is the latest recevied weather packets stored in our database for station/object W6ZZY. If no packets are shown the sender has not sent any weather packets the latest 10 day(s).
| Time | Temp. | Humidity | Pressure | Rain* | Wind** | Luminosity | Snow |
|---|---|---|---|---|---|---|---|
| 1777598424 | 15.56° C | 80% | 1016.3 hPa | 0 mm | - | - | - |
| 1777596630 | 17.22° C | 74% | 1016.4 hPa | 0 mm | - | - | - |
| 1777591220 | 18.89° C | 69% | 1016.5 hPa | 0 mm | - | - | - |
| 1777588232 | 20° C | 66% | 1016.9 hPa | 0 mm | - | - | - |
| 1777584619 | 20° C | 66% | 1017.5 hPa | 0 mm | - | - | - |
| 1777581028 | 19.44° C | 68% | 1017.6 hPa | 0 mm | - | - | - |
| 1777568435 | 14.44° C | 83% | 1018.1 hPa | 0 mm | - | - | - |
| 1777559434 | 10.56° C | 97% | 1017.9 hPa | 0 mm | - | - | - |
| 1777556426 | 10.56° C | 98% | 1017.5 hPa | 0 mm | - | - | - |
| 1777548619 | 9.44° C | 97% | 1017.5 hPa | 0 mm | - | - | - |
| 1777548055 | 9.44° C | 97% | 1017.5 hPa | 0 mm | - | - | - |
| 1777546824 | 9.44° C | 97% | 1017.6 hPa | 0 mm | - | - | - |
| 1777543816 | 10° C | 96% | 1017.7 hPa | 0 mm | - | - | - |
| 1777542646 | 10° C | 95% | 1017.9 hPa | 0 mm | - | - | - |
| 1777540852 | 10.56° C | 95% | 1018.4 hPa | 0 mm | - | - | - |
| 1777540226 | 10.56° C | 95% | 1018.5 hPa | 0 mm | - | - | - |
| 1777537825 | 10.56° C | 94% | 1018.8 hPa | 0 mm | - | - | - |
| 1777537220 | 10.56° C | 94% | 1018.9 hPa | 0 mm | - | - | - |
| 1777536635 | 11.11° C | 93% | 1019 hPa | 0 mm | - | - | - |
| 1777536030 | 11.11° C | 92% | 1019 hPa | 0 mm | - | - | - |
| 1777534235 | 11.11° C | 91% | 1019.1 hPa | 0 mm | - | - | - |
| 1777533024 | 11.11° C | 90% | 1019.3 hPa | 0 mm | - | - | - |
| 1777531854 | 11.67° C | 88% | 1019.2 hPa | 0 mm | - | - | - |
| 1777527635 | 11.67° C | 79% | 1019.2 hPa | 0 mm | - | - | - |
| 1777524630 | 12.22° C | 78% | 1019.2 hPa | 0 mm | - | - | - |
* Rain latest hour (hover to see other rain measurements)
** Current wind speed in m/s (hover to see current wind gust speed)